createdAt,value
2019-05-13T00:00:57.165Z,76.90
2019-05-13T00:01:57.135Z,77.01
2019-05-13T00:02:57.243Z,77.01
2019-05-13T00:03:57.131Z,76.70
2019-05-13T00:04:57.122Z,76.60
2019-05-13T00:05:57.082Z,76.81
2019-05-13T00:06:57.853Z,77.01
2019-05-13T00:07:57.173Z,77.01
2019-05-13T00:08:57.082Z,76.60
2019-05-13T00:09:57.082Z,76.60
2019-05-13T00:10:57.041Z,76.70
2019-05-13T00:11:57.053Z,76.81
2019-05-13T00:12:57.037Z,76.90
2019-05-13T00:13:56.993Z,76.81
2019-05-13T00:14:57.015Z,77.01
2019-05-13T00:15:56.984Z,77.32
2019-05-13T00:16:56.994Z,77.11
2019-05-13T00:17:56.972Z,77.22
2019-05-13T00:18:56.987Z,77.42
2019-05-13T00:19:56.933Z,77.42
2019-05-13T00:20:56.923Z,77.63
2019-05-13T00:21:56.910Z,77.73
2019-05-13T00:22:57.012Z,77.84
2019-05-13T00:23:56.905Z,77.84
2019-05-13T00:24:57.002Z,77.53
2019-05-13T00:25:56.861Z,77.84
2019-05-13T00:26:56.882Z,77.84
2019-05-13T00:27:56.841Z,77.63
2019-05-13T00:28:56.963Z,77.94
2019-05-13T00:29:56.842Z,77.94
2019-05-13T00:30:56.811Z,77.87
2019-05-13T00:31:56.801Z,78.18
2019-05-13T00:32:56.826Z,78.28
2019-05-13T00:33:56.922Z,78.18
2019-05-13T00:34:56.771Z,78.08
2019-05-13T00:35:56.782Z,78.18
2019-05-13T00:37:07.798Z,78.28
2019-05-13T00:37:57.742Z,78.28
2019-05-13T00:38:56.722Z,78.39
2019-05-13T00:39:56.741Z,78.39
2019-05-13T00:40:56.714Z,78.49
2019-05-13T00:41:56.702Z,78.39
2019-05-13T00:42:56.682Z,78.18
2019-05-13T00:43:56.702Z,78.49
2019-05-13T00:44:56.682Z,78.70
2019-05-13T00:45:56.663Z,78.91
2019-05-13T00:46:56.753Z,78.91
2019-05-13T00:47:56.664Z,78.80
2019-05-13T00:48:56.611Z,79.01
2019-05-13T00:49:56.634Z,78.91
2019-05-13T00:50:56.605Z,78.70
2019-05-13T00:51:56.582Z,79.01
2019-05-13T00:52:56.612Z,79.01
2019-05-13T00:53:56.618Z,78.91
2019-05-13T00:54:56.590Z,78.91
2019-05-13T00:55:56.562Z,79.05
2019-05-13T00:56:56.551Z,78.84
2019-05-13T00:57:56.522Z,78.74
2019-05-13T00:58:56.616Z,78.63
2019-05-13T00:59:56.514Z,78.94
2019-05-13T01:00:56.522Z,79.08
2019-05-13T01:01:56.474Z,79.29
2019-05-13T01:02:56.503Z,79.29
2019-05-13T01:03:56.587Z,79.80
2019-05-13T01:04:56.444Z,79.80
2019-05-13T01:05:56.477Z,79.74
2019-05-13T01:06:56.537Z,80.05
2019-05-13T01:07:56.415Z,80.36
2019-05-13T01:08:56.424Z,80.46
2019-05-13T01:09:56.413Z,80.46
2019-05-13T01:10:56.383Z,80.40
2019-05-13T01:11:56.374Z,80.71
2019-05-13T01:12:56.483Z,80.81
2019-05-13T01:13:56.383Z,80.91
2019-05-13T01:14:56.365Z,80.91
2019-05-13T01:15:56.466Z,81.12
2019-05-13T01:16:56.343Z,81.12
2019-05-13T01:17:56.424Z,81.02
2019-05-13T01:18:56.303Z,81.16
2019-05-13T01:19:56.306Z,81.37
2019-05-13T01:20:56.302Z,81.57
2019-05-13T01:21:56.393Z,81.78
2019-05-13T01:22:56.354Z,81.99
2019-05-13T01:23:56.243Z,82.19
2019-05-13T01:24:56.256Z,82.13
2019-05-13T01:25:56.266Z,82.13
2019-05-13T01:26:56.226Z,82.34
2019-05-13T01:27:56.245Z,82.44
2019-05-13T01:28:56.233Z,82.54
2019-05-13T01:29:56.202Z,82.54
2019-05-13T01:30:56.165Z,82.65
2019-05-13T01:31:56.167Z,82.54
2019-05-13T01:32:56.152Z,82.44
2019-05-13T01:33:56.146Z,82.48
2019-05-13T01:34:56.192Z,82.48
2019-05-13T01:35:56.113Z,82.68
2019-05-13T01:36:56.133Z,83.10
2019-05-13T01:37:56.115Z,83.41
2019-05-13T01:38:56.083Z,83.41
2019-05-13T01:39:56.202Z,83.31
2019-05-13T01:40:56.072Z,83.34
2019-05-13T01:41:56.052Z,83.45
2019-05-13T01:42:56.051Z,83.55
2019-05-13T01:43:56.034Z,83.45
2019-05-13T01:44:56.041Z,83.45
2019-05-13T01:45:56.144Z,83.55
2019-05-13T01:46:56.032Z,83.45
2019-05-13T01:47:55.992Z,83.45
2019-05-13T01:48:55.985Z,83.45
2019-05-13T01:49:55.971Z,83.45
2019-05-13T01:50:55.964Z,83.55
2019-05-13T01:51:56.071Z,83.55
2019-05-13T01:52:55.939Z,83.55
2019-05-13T01:53:55.961Z,83.65
2019-05-13T01:54:55.941Z,83.65
2019-05-13T01:55:55.911Z,83.65
2019-05-13T01:56:55.900Z,83.86
2019-05-13T01:57:55.893Z,83.90
2019-05-13T01:58:55.879Z,83.90
2019-05-13T01:59:55.861Z,84.00
2019-05-13T02:00:55.876Z,84.00
2019-05-13T02:01:55.891Z,83.90
2019-05-13T02:02:55.830Z,84.00
2019-05-13T02:03:55.833Z,84.00
2019-05-13T02:04:55.809Z,83.90
2019-05-13T02:05:55.891Z,83.80
2019-05-13T02:06:55.809Z,83.69
2019-05-13T02:08:00.396Z,83.59
2019-05-13T02:08:56.829Z,83.69
2019-05-13T02:09:55.895Z,83.94
2019-05-13T02:10:55.773Z,84.11
2019-05-13T02:11:55.760Z,84.15
2019-05-13T02:12:55.728Z,83.94
2019-05-13T02:13:55.722Z,83.94
2019-05-13T02:14:55.718Z,84.05
2019-05-13T02:15:55.806Z,84.05
2019-05-13T02:16:55.699Z,84.05
2019-05-13T02:17:55.679Z,84.05
2019-05-13T02:18:55.657Z,84.25
2019-05-13T02:19:55.667Z,84.15
2019-05-13T02:20:56.171Z,83.94
2019-05-13T02:21:55.629Z,83.94
2019-05-13T02:22:55.617Z,83.94
2019-05-13T02:23:55.599Z,83.94
2019-05-13T02:24:55.627Z,84.05
2019-05-13T02:25:55.692Z,83.94
2019-05-13T02:26:55.584Z,83.94
2019-05-13T02:27:55.558Z,84.05
2019-05-13T02:28:55.562Z,83.84
2019-05-13T02:29:55.551Z,83.98
2019-05-13T02:30:56.735Z,84.08
2019-05-13T02:31:56.463Z,84.19
2019-05-13T02:32:55.517Z,84.39
2019-05-13T02:33:55.498Z,84.29
2019-05-13T02:34:55.516Z,83.98
2019-05-13T02:35:55.477Z,84.08
2019-05-13T02:36:55.561Z,84.29
2019-05-13T02:38:13.423Z,84.50
2019-05-13T02:38:56.451Z,84.60
2019-05-13T02:39:55.465Z,84.50
2019-05-13T02:40:55.439Z,84.29
2019-05-13T02:41:55.417Z,84.60
2019-05-13T02:42:55.518Z,84.60
2019-05-13T02:43:55.397Z,84.74
2019-05-13T02:44:55.409Z,84.74
2019-05-13T02:45:55.381Z,84.74
2019-05-13T02:46:55.364Z,84.74
2019-05-13T02:47:55.467Z,84.64
2019-05-13T02:48:55.370Z,84.74
2019-05-13T02:49:55.326Z,84.74
2019-05-13T02:50:55.318Z,84.74
2019-05-13T02:51:55.333Z,84.95
2019-05-13T02:52:55.425Z,85.16
2019-05-13T02:53:55.290Z,85.26
2019-05-13T02:54:55.279Z,85.36
2019-05-13T02:55:55.289Z,85.36
2019-05-13T02:56:55.277Z,85.36
2019-05-13T02:57:55.258Z,85.36
2019-05-13T02:58:55.313Z,85.16
2019-05-13T02:59:55.225Z,85.05
2019-05-13T03:00:55.249Z,84.84
2019-05-13T03:01:55.225Z,84.78
2019-05-13T03:02:55.211Z,84.78
2019-05-13T03:03:55.297Z,84.78
2019-05-13T03:04:55.267Z,84.78
2019-05-13T03:05:55.168Z,84.58
2019-05-13T03:06:55.145Z,84.47
2019-05-13T03:07:55.126Z,84.58
2019-05-13T03:08:55.235Z,84.68
2019-05-13T03:09:55.249Z,84.82
2019-05-13T03:10:55.115Z,85.03
2019-05-13T03:11:55.100Z,85.13
2019-05-13T03:12:55.122Z,85.24
2019-05-13T03:13:55.104Z,85.34
2019-05-13T03:14:55.085Z,85.34
2019-05-13T03:15:55.068Z,85.34
2019-05-13T03:16:55.045Z,85.24
2019-05-13T03:17:55.067Z,85.03
2019-05-13T03:18:55.045Z,85.03
2019-05-13T03:19:55.174Z,85.03
2019-05-13T03:20:55.024Z,85.03
2019-05-13T03:21:54.985Z,85.24
2019-05-13T03:22:54.973Z,85.24
2019-05-13T03:23:54.995Z,85.13
2019-05-13T03:24:55.068Z,85.24
2019-05-13T03:25:54.965Z,85.24
2019-05-13T03:26:54.955Z,85.13
2019-05-13T03:27:54.929Z,84.92
2019-05-13T03:28:54.951Z,84.82
2019-05-13T03:29:54.912Z,84.61
2019-05-13T03:30:56.671Z,84.41
2019-05-13T03:31:56.444Z,84.41
2019-05-13T03:33:01.114Z,84.51
2019-05-13T03:33:56.764Z,84.51
2019-05-13T03:34:56.357Z,84.61
2019-05-13T03:35:56.213Z,84.72
2019-05-13T03:36:57.403Z,84.72
2019-05-13T03:37:54.814Z,84.82
2019-05-13T03:39:05.113Z,84.82
2019-05-13T03:39:55.784Z,84.82
2019-05-13T03:40:54.886Z,84.82
2019-05-13T03:41:54.772Z,84.82
2019-05-13T03:42:54.793Z,84.82
2019-05-13T03:43:54.788Z,84.75
2019-05-13T03:44:54.752Z,84.72
2019-05-13T03:45:54.736Z,84.75
2019-05-13T03:46:54.833Z,84.65
2019-05-13T03:47:54.712Z,84.65
2019-05-13T03:48:54.702Z,84.65
2019-05-13T03:49:54.699Z,84.65
2019-05-13T03:50:54.682Z,84.55
2019-05-13T03:51:54.722Z,84.55
2019-05-13T03:52:54.662Z,84.44
2019-05-13T03:53:54.655Z,84.34
2019-05-13T03:54:54.632Z,84.44
2019-05-13T03:55:54.736Z,84.34
2019-05-13T03:56:54.632Z,84.34
2019-05-13T03:57:54.618Z,84.34
2019-05-13T03:58:54.591Z,84.44
2019-05-13T03:59:54.589Z,84.44
2019-05-13T04:00:54.601Z,84.55
2019-05-13T04:01:54.580Z,84.65
2019-05-13T04:02:54.650Z,84.65
2019-05-13T04:03:54.541Z,84.65
2019-05-13T04:04:58.333Z,84.65
2019-05-13T04:05:54.549Z,84.65
2019-05-13T04:06:54.502Z,84.75
2019-05-13T04:07:54.514Z,84.65
2019-05-13T04:08:54.480Z,84.44
2019-05-13T04:09:54.503Z,84.44
2019-05-13T04:10:54.460Z,84.65
2019-05-13T04:11:54.453Z,84.86
2019-05-13T04:12:54.450Z,84.75
2019-05-13T04:13:54.430Z,84.65
2019-05-13T04:14:54.531Z,84.65
2019-05-13T04:15:54.412Z,84.75
2019-05-13T04:16:54.400Z,84.75
2019-05-13T04:17:54.500Z,84.75
2019-05-13T04:18:54.378Z,84.65
2019-05-13T04:19:54.373Z,84.65
2019-05-13T04:20:54.349Z,84.65
2019-05-13T04:21:54.353Z,84.72
2019-05-13T04:22:54.331Z,84.72
2019-05-13T04:23:54.329Z,84.72
2019-05-13T04:24:54.314Z,84.72
2019-05-13T04:25:54.313Z,84.82
2019-05-13T04:26:54.288Z,84.72
2019-05-13T04:27:54.278Z,84.82
2019-05-13T04:28:54.314Z,85.03
2019-05-13T04:29:54.250Z,85.13
2019-05-13T04:30:54.243Z,85.24
2019-05-13T04:31:54.228Z,85.24
2019-05-13T04:32:54.232Z,85.24
2019-05-13T04:33:54.227Z,85.34
2019-05-13T04:34:54.218Z,85.34
2019-05-13T04:35:54.187Z,85.34
2019-05-13T04:36:54.189Z,85.34
2019-05-13T04:37:54.168Z,85.44
2019-05-13T04:38:54.171Z,85.44
2019-05-13T04:39:56.249Z,85.44
2019-05-13T04:40:54.152Z,85.61
2019-05-13T04:41:54.135Z,85.72
2019-05-13T04:42:54.250Z,85.82
2019-05-13T04:43:54.468Z,85.72
2019-05-13T04:44:54.099Z,85.72
2019-05-13T04:45:54.110Z,85.72
2019-05-13T04:46:54.067Z,85.82
2019-05-13T04:47:54.070Z,86.03
2019-05-13T04:48:54.049Z,86.13
2019-05-13T04:49:54.076Z,86.34
2019-05-13T04:50:54.048Z,86.30
2019-05-13T04:51:54.027Z,86.19
2019-05-13T04:52:54.009Z,86.09
2019-05-13T04:53:57.322Z,85.99
2019-05-13T04:54:53.987Z,85.88
2019-05-13T04:55:54.009Z,85.88
2019-05-13T04:56:53.981Z,85.99
2019-05-13T04:57:53.969Z,85.99
2019-05-13T04:58:53.949Z,86.05
2019-05-13T04:59:54.960Z,86.05
2019-05-13T05:01:01.980Z,86.05
2019-05-13T05:01:59.212Z,86.05
2019-05-13T05:02:55.591Z,86.05
2019-05-13T05:03:53.902Z,85.95
2019-05-13T05:04:53.896Z,86.02
2019-05-13T05:05:53.996Z,85.91
2019-05-13T05:06:53.910Z,85.81
2019-05-13T05:07:53.847Z,85.81
2019-05-13T05:08:53.865Z,85.91
2019-05-13T05:10:15.840Z,85.77
2019-05-13T05:10:54.933Z,85.46
2019-05-13T05:11:53.837Z,85.25
2019-05-13T05:12:53.905Z,85.14
2019-05-13T05:13:56.567Z,84.90
2019-05-13T05:14:53.810Z,84.90
2019-05-13T05:15:53.809Z,84.96
2019-05-13T05:16:53.754Z,84.96
2019-05-13T05:17:53.747Z,84.82
2019-05-13T05:18:53.736Z,84.78
2019-05-13T05:19:53.739Z,84.78
2019-05-13T05:20:53.715Z,84.43
2019-05-13T05:21:55.526Z,83.87
2019-05-13T05:22:53.794Z,83.11
2019-05-13T05:23:53.683Z,82.76
2019-05-13T05:24:53.665Z,82.31
2019-05-13T05:25:53.663Z,81.66
2019-05-13T05:26:53.666Z,80.58
2019-05-13T05:27:53.738Z,80.04
2019-05-13T05:28:53.634Z,79.38
2019-05-13T05:29:53.665Z,78.86
2019-05-13T05:30:53.617Z,78.07
2019-05-13T05:31:53.595Z,77.11
2019-05-13T05:32:53.675Z,76.25
2019-05-13T05:33:53.696Z,75.56
2019-05-13T05:34:53.565Z,74.50
2019-05-13T05:35:53.555Z,73.74
2019-05-13T05:36:53.548Z,72.27
2019-05-13T05:37:53.635Z,71.08
2019-05-13T05:38:53.534Z,70.53
2019-05-13T05:39:53.521Z,69.17
2019-05-13T05:40:53.556Z,68.11
2019-05-13T05:41:53.485Z,67.94
2019-05-13T05:42:53.485Z,66.86
2019-05-13T05:43:53.465Z,65.60
2019-05-13T05:44:53.456Z,64.45
2019-05-13T05:45:53.446Z,63.47
2019-05-13T05:46:53.529Z,61.91
2019-05-13T05:47:53.429Z,61.57
2019-05-13T05:48:53.415Z,60.93
2019-05-13T05:49:53.420Z,60.42
2019-05-13T05:50:53.396Z,60.02
2019-05-13T05:51:53.465Z,60.12
2019-05-13T05:52:53.395Z,60.66
2019-05-13T05:53:53.365Z,60.63
2019-05-13T05:54:53.435Z,59.96
2019-05-13T05:55:54.884Z,58.84
2019-05-13T05:56:53.334Z,58.81
2019-05-13T05:57:53.315Z,58.51
2019-05-13T05:58:53.315Z,58.40
2019-05-13T05:59:53.295Z,58.38
2019-05-13T06:00:53.298Z,58.38
2019-05-13T06:01:53.276Z,57.26
2019-05-13T06:02:53.425Z,58.00
2019-05-13T06:03:53.255Z,58.17
2019-05-13T06:04:53.349Z,57.87
2019-05-13T06:05:53.235Z,57.46
2019-05-13T06:06:53.225Z,57.36
2019-05-13T06:07:53.206Z,57.67
2019-05-13T06:08:53.208Z,57.69
2019-05-13T06:09:53.194Z,58.53
2019-05-13T06:10:53.918Z,58.81
2019-05-13T06:11:53.176Z,58.81
2019-05-13T06:12:53.155Z,58.78
2019-05-13T06:13:54.715Z,58.17
2019-05-13T06:14:53.216Z,58.04
2019-05-13T06:15:53.126Z,57.13
2019-05-13T06:16:53.129Z,56.80
2019-05-13T06:17:53.096Z,56.42
2019-05-13T06:18:53.096Z,56.73
2019-05-13T06:19:53.099Z,57.13
2019-05-13T06:20:53.066Z,57.13
2019-05-13T06:21:53.073Z,56.55
2019-05-13T06:22:53.046Z,57.23
2019-05-13T06:23:53.036Z,56.70
2019-05-13T06:24:53.159Z,56.29
2019-05-13T06:25:53.042Z,55.96
2019-05-13T06:26:53.015Z,55.63
2019-05-13T06:27:52.987Z,55.43
2019-05-13T06:28:52.975Z,54.59
2019-05-13T06:29:53.120Z,54.39
2019-05-13T06:30:53.068Z,54.97
2019-05-13T06:31:52.948Z,54.24
2019-05-13T06:32:52.966Z,54.00
2019-05-13T06:33:52.939Z,53.07
2019-05-13T06:34:52.907Z,53.07
2019-05-13T06:35:52.917Z,52.36
2019-05-13T06:36:52.913Z,52.66
2019-05-13T06:37:52.969Z,52.36
2019-05-13T06:38:52.908Z,52.76
2019-05-13T06:39:52.871Z,52.36
2019-05-13T06:41:03.310Z,52.33
2019-05-13T06:41:53.837Z,52.23
2019-05-13T06:42:52.841Z,52.26
2019-05-13T06:43:52.810Z,51.86
2019-05-13T06:44:52.797Z,52.66
2019-05-13T06:45:52.787Z,52.33
2019-05-13T06:46:52.878Z,51.88
2019-05-13T06:47:52.778Z,50.97
2019-05-13T06:48:52.757Z,51.35
2019-05-13T06:49:52.761Z,50.62
2019-05-13T06:50:52.751Z,50.12
2019-05-13T06:52:13.838Z,49.89
2019-05-13T06:52:52.761Z,49.89
2019-05-13T06:53:52.721Z,49.38
2019-05-13T06:54:52.689Z,49.41
2019-05-13T06:55:52.681Z,51.07
2019-05-13T06:56:52.769Z,51.62
2019-05-13T06:57:52.668Z,52.06
2019-05-13T06:58:52.675Z,52.56
2019-05-13T06:59:52.671Z,52.79
2019-05-13T07:00:57.294Z,52.48
2019-05-13T07:01:53.642Z,52.92
2019-05-13T07:02:52.609Z,53.80
2019-05-13T07:03:52.642Z,53.88
2019-05-13T07:04:52.619Z,52.72
2019-05-13T07:05:52.661Z,51.48
2019-05-13T07:07:08.477Z,50.84
2019-05-13T07:07:53.561Z,50.21
2019-05-13T07:08:52.551Z,50.70
2019-05-13T07:09:52.530Z,49.69
2019-05-13T07:10:52.530Z,49.51
2019-05-13T07:11:52.542Z,49.81
2019-05-13T07:12:52.604Z,49.81
2019-05-13T07:13:52.503Z,49.73
2019-05-13T07:14:52.484Z,51.20
2019-05-13T07:15:52.501Z,51.75
2019-05-13T07:16:52.596Z,53.09
2019-05-13T07:17:52.572Z,53.25
2019-05-13T07:18:52.547Z,53.98
2019-05-13T07:19:52.453Z,54.51
2019-05-13T07:20:53.181Z,54.99
2019-05-13T07:21:52.416Z,55.27
2019-05-13T07:22:53.359Z,53.72
2019-05-13T07:23:54.883Z,52.41
2019-05-13T07:24:52.382Z,52.44
2019-05-13T07:25:52.690Z,54.18
2019-05-13T07:26:52.496Z,54.86
2019-05-13T07:27:52.346Z,54.64
2019-05-13T07:28:52.954Z,53.27
2019-05-13T07:29:55.565Z,51.62
2019-05-13T07:30:52.326Z,51.68
2019-05-13T07:31:52.414Z,50.18
2019-05-13T07:32:52.451Z,51.12
2019-05-13T07:33:52.382Z,51.53
2019-05-13T07:34:53.443Z,51.30
2019-05-13T07:35:58.266Z,51.30
2019-05-13T07:36:53.257Z,51.70
2019-05-13T07:37:52.235Z,51.12
2019-05-13T07:38:52.270Z,51.93
2019-05-13T07:39:53.017Z,51.32
2019-05-13T07:40:52.268Z,50.21
2019-05-13T07:41:52.241Z,51.62
2019-05-13T07:42:52.311Z,50.51
2019-05-13T07:43:52.178Z,51.93
2019-05-13T07:44:52.383Z,52.01
2019-05-13T07:45:52.465Z,51.50
2019-05-13T07:46:52.463Z,50.99
2019-05-13T07:47:52.208Z,50.37
2019-05-13T07:48:52.357Z,50.57
2019-05-13T07:49:52.110Z,50.44
2019-05-13T07:50:59.906Z,49.84
2019-05-13T07:51:53.097Z,49.81
2019-05-13T07:52:52.093Z,50.29
2019-05-13T07:53:52.068Z,48.10
2019-05-13T07:54:52.270Z,48.32
2019-05-13T07:55:52.604Z,48.52
2019-05-13T07:56:52.462Z,48.74
2019-05-13T07:57:52.018Z,49.15
2019-05-13T07:58:52.472Z,49.05
2019-05-13T07:59:52.506Z,48.52
2019-05-13T08:00:52.311Z,49.02
2019-05-13T08:01:52.334Z,49.43
2019-05-13T08:02:52.346Z,48.82
2019-05-13T08:03:51.959Z,48.93
2019-05-13T08:04:53.129Z,47.63
2019-05-13T08:05:51.949Z,48.24
2019-05-13T08:06:52.504Z,47.96
2019-05-13T08:07:51.951Z,49.19
2019-05-13T08:08:52.436Z,47.66
2019-05-13T08:09:56.022Z,47.98
2019-05-13T08:10:52.883Z,48.99
2019-05-13T08:12:05.489Z,49.48
2019-05-13T08:12:52.871Z,49.55
2019-05-13T08:13:51.923Z,47.63
2019-05-13T08:14:52.291Z,48.03
2019-05-13T08:15:54.417Z,49.02
2019-05-13T08:16:51.963Z,48.93
2019-05-13T08:17:52.445Z,49.61
2019-05-13T08:18:52.344Z,48.19
2019-05-13T08:19:52.164Z,45.37
2019-05-13T08:20:52.423Z,47.00
2019-05-13T08:21:51.823Z,48.32
2019-05-13T08:22:52.080Z,48.30
2019-05-13T08:23:52.527Z,49.30
2019-05-13T08:24:54.148Z,49.38
2019-05-13T08:25:51.715Z,49.26
2019-05-13T08:26:53.146Z,47.04
2019-05-13T08:27:51.755Z,47.54
2019-05-13T08:29:01.194Z,45.42
2019-05-13T08:29:52.678Z,46.84
2019-05-13T08:30:51.933Z,47.26
2019-05-13T08:31:51.953Z,47.36
2019-05-13T08:32:52.314Z,47.36
2019-05-13T08:33:52.041Z,46.43
2019-05-13T08:35:00.774Z,46.43
2019-05-13T08:35:58.349Z,46.51
2019-05-13T08:36:52.598Z,47.32
2019-05-13T08:37:52.137Z,45.50
2019-05-13T08:38:52.020Z,45.12
2019-05-13T08:39:52.195Z,45.42
2019-05-13T08:40:51.561Z,45.62
2019-05-13T08:41:51.689Z,46.31
2019-05-13T08:42:52.130Z,45.42
2019-05-13T08:43:52.452Z,46.13
2019-05-13T08:44:52.419Z,46.51
2019-05-13T08:45:55.485Z,47.62
2019-05-13T08:46:52.009Z,46.09
2019-05-13T08:47:51.481Z,44.27
2019-05-13T08:48:51.929Z,43.46
2019-05-13T08:49:52.177Z,44.98
2019-05-13T08:50:52.211Z,43.48
2019-05-13T08:51:52.671Z,44.49
2019-05-13T08:52:51.532Z,44.19
2019-05-13T08:53:51.752Z,42.96
2019-05-13T08:54:52.498Z,42.96
2019-05-13T08:55:51.832Z,41.87
2019-05-13T08:56:52.047Z,41.97
2019-05-13T08:57:54.928Z,42.98
2019-05-13T08:58:52.033Z,43.79
2019-05-13T08:59:51.714Z,44.39
2019-05-13T09:00:52.988Z,45.50
2019-05-13T09:01:51.963Z,43.48
2019-05-13T09:02:52.199Z,44.87
2019-05-13T09:03:52.149Z,43.66
2019-05-13T09:04:51.574Z,43.95
2019-05-13T09:05:52.203Z,44.05
2019-05-13T09:06:52.385Z,43.24
2019-05-13T09:07:51.792Z,43.04
2019-05-13T09:08:53.958Z,43.04
2019-05-13T09:09:51.385Z,43.24
2019-05-13T09:10:52.079Z,43.85
2019-05-13T09:11:51.689Z,44.35
2019-05-13T09:12:52.180Z,42.13
2019-05-13T09:13:51.697Z,41.22
2019-05-13T09:14:52.384Z,42.24
2019-05-13T09:15:51.762Z,40.34
2019-05-13T09:16:52.617Z,41.53
2019-05-13T09:17:51.698Z,38.81
2019-05-13T09:18:52.180Z,40.32
2019-05-13T09:19:52.021Z,39.94
2019-05-13T09:20:52.033Z,38.52
2019-05-13T09:21:52.557Z,38.22
2019-05-13T09:22:51.487Z,38.93
2019-05-13T09:23:51.594Z,39.35
2019-05-13T09:24:53.064Z,39.45
2019-05-13T09:25:52.101Z,41.14
2019-05-13T09:26:52.737Z,39.73
2019-05-13T09:27:51.392Z,38.62
2019-05-13T09:28:52.183Z,39.33
2019-05-13T09:29:51.866Z,39.11
2019-05-13T09:30:53.046Z,39.59
2019-05-13T09:31:52.000Z,39.90
2019-05-13T09:32:51.444Z,39.98
2019-05-13T09:33:52.063Z,39.07
2019-05-13T09:34:52.491Z,38.87
2019-05-13T09:35:53.634Z,37.54
2019-05-13T09:36:51.868Z,38.93
2019-05-13T09:37:51.586Z,38.64
2019-05-13T09:38:52.634Z,38.21
2019-05-13T09:39:51.670Z,37.71
2019-05-13T09:40:52.977Z,37.10
2019-05-13T09:41:52.019Z,36.30
2019-05-13T09:42:52.813Z,35.11
2019-05-13T09:43:51.501Z,35.23
2019-05-13T09:44:52.551Z,36.04
2019-05-13T09:45:52.301Z,37.63
2019-05-13T09:46:51.643Z,37.83
2019-05-13T09:47:52.527Z,38.81
2019-05-13T09:48:51.667Z,37.43
2019-05-13T09:49:50.832Z,38.73
2019-05-13T09:50:51.706Z,39.03
2019-05-13T09:51:52.329Z,38.23
2019-05-13T09:52:51.738Z,37.21
2019-05-13T09:53:52.023Z,38.62
2019-05-13T09:54:52.342Z,38.62
2019-05-13T09:55:52.142Z,39.10
2019-05-13T09:56:51.814Z,37.99
2019-05-13T09:57:52.505Z,39.20
2019-05-13T09:58:51.411Z,38.49
2019-05-13T09:59:52.420Z,37.29
2019-05-13T10:00:52.605Z,38.70
2019-05-13T10:01:51.955Z,37.77
2019-05-13T10:02:51.668Z,37.27
2019-05-13T10:03:54.878Z,37.47
2019-05-13T10:04:51.760Z,37.99
2019-05-13T10:05:51.899Z,38.38
2019-05-13T10:06:50.665Z,38.98
2019-05-13T10:07:50.635Z,37.47
2019-05-13T10:08:52.711Z,37.29
2019-05-13T10:09:52.088Z,35.90
2019-05-13T10:10:52.827Z,36.10
2019-05-13T10:11:51.974Z,38.62
2019-05-13T10:13:07.306Z,38.42
2019-05-13T10:13:51.661Z,38.42
2019-05-13T10:14:50.691Z,39.22
2019-05-13T10:15:50.549Z,37.51
2019-05-13T10:16:51.524Z,36.90
2019-05-13T10:17:52.646Z,34.59
2019-05-13T10:18:52.442Z,34.69
2019-05-13T10:19:52.072Z,35.80
2019-05-13T10:20:52.841Z,35.80
2019-05-13T10:21:52.372Z,35.10
2019-05-13T10:22:52.586Z,33.20
2019-05-13T10:23:50.491Z,35.13
2019-05-13T10:24:51.371Z,35.21
2019-05-13T10:25:52.172Z,34.81
2019-05-13T10:26:51.519Z,34.99
2019-05-13T10:27:50.423Z,35.70
2019-05-13T10:28:50.425Z,35.50
2019-05-13T10:29:51.794Z,34.99
2019-05-13T10:30:53.103Z,34.19
2019-05-13T10:31:51.401Z,34.69
2019-05-13T10:32:52.672Z,34.78
2019-05-13T10:33:51.321Z,35.48
2019-05-13T10:34:51.978Z,34.66
2019-05-13T10:35:52.426Z,35.26
2019-05-13T10:36:51.378Z,34.46
2019-05-13T10:37:52.323Z,35.44
2019-05-13T10:38:52.204Z,35.35
2019-05-13T10:39:51.732Z,33.34
2019-05-13T10:40:51.973Z,34.94
2019-05-13T10:41:52.323Z,34.56
2019-05-13T10:42:52.432Z,34.06
2019-05-13T10:43:52.114Z,33.74
2019-05-13T10:44:52.280Z,33.54
2019-05-13T10:45:52.305Z,32.23
2019-05-13T10:46:52.273Z,32.95
2019-05-13T10:47:51.946Z,35.26
2019-05-13T10:48:52.718Z,35.57
2019-05-13T10:49:52.318Z,33.57
2019-05-13T10:50:52.914Z,34.78
2019-05-13T10:51:52.714Z,34.38
2019-05-13T10:52:52.244Z,34.38
2019-05-13T10:53:52.786Z,36.18
2019-05-13T10:54:52.738Z,32.97
2019-05-13T10:55:52.213Z,36.38
2019-05-13T10:56:52.734Z,35.26
2019-05-13T10:57:51.474Z,35.46
2019-05-13T10:58:53.481Z,33.44
2019-05-13T10:59:52.440Z,33.84
2019-05-13T11:00:51.641Z,33.84
2019-05-13T11:01:50.078Z,35.44
2019-05-13T11:02:50.163Z,36.45
2019-05-13T11:03:52.412Z,34.92
2019-05-13T11:04:51.939Z,33.84
2019-05-13T11:05:52.603Z,34.94
2019-05-13T11:06:52.478Z,35.95
2019-05-13T11:07:51.733Z,37.96
2019-05-13T11:08:52.461Z,34.94
2019-05-13T11:09:52.702Z,36.35
2019-05-13T11:10:52.790Z,35.75
2019-05-13T11:11:52.901Z,35.97
2019-05-13T11:12:52.061Z,36.85
2019-05-13T11:13:56.431Z,37.35
2019-05-13T11:14:53.975Z,35.85
2019-05-13T11:15:50.007Z,35.75
2019-05-13T11:16:52.262Z,37.46
2019-05-13T11:17:51.895Z,37.77
2019-05-13T11:18:51.964Z,38.66
2019-05-13T11:19:49.989Z,37.26
2019-05-13T11:20:49.872Z,34.34
2019-05-13T11:21:50.899Z,35.44
2019-05-13T11:22:51.841Z,35.86
2019-05-13T11:23:51.878Z,37.05
2019-05-13T11:24:51.826Z,38.26
2019-05-13T11:25:52.315Z,37.26
2019-05-13T11:26:52.266Z,36.55
2019-05-13T11:27:52.269Z,36.35
2019-05-13T11:28:52.169Z,35.85
2019-05-13T11:29:52.310Z,36.63
2019-05-13T11:30:51.977Z,36.93
2019-05-13T11:31:52.254Z,37.12
2019-05-13T11:32:51.659Z,36.41
2019-05-13T11:33:52.017Z,35.91
2019-05-13T11:34:52.123Z,34.92
2019-05-13T11:35:52.113Z,35.63
2019-05-13T11:36:52.845Z,35.55
2019-05-13T11:37:51.559Z,35.35
2019-05-13T11:38:49.783Z,36.55
2019-05-13T11:39:51.692Z,36.55
2019-05-13T11:40:52.374Z,36.33
2019-05-13T11:41:49.678Z,34.22
2019-05-13T11:42:52.163Z,35.23
2019-05-13T11:44:09.244Z,33.22
2019-05-13T11:44:52.718Z,33.92
2019-05-13T11:45:50.884Z,34.83
2019-05-13T11:46:52.747Z,34.02
2019-05-13T11:47:51.975Z,32.52
2019-05-13T11:48:51.857Z,33.14
2019-05-13T11:49:51.353Z,32.73
2019-05-13T11:50:53.189Z,33.23
2019-05-13T11:51:51.999Z,33.75
2019-05-13T11:52:52.454Z,34.14
2019-05-13T11:53:50.555Z,33.74
2019-05-13T11:54:53.111Z,35.95
2019-05-13T11:55:52.038Z,33.94
2019-05-13T11:56:55.624Z,35.83
2019-05-13T11:57:53.142Z,34.42
2019-05-13T11:58:53.229Z,34.92
2019-05-13T11:59:52.451Z,33.51
2019-05-13T12:00:52.947Z,33.31
2019-05-13T12:01:53.500Z,31.70
2019-05-13T12:02:51.999Z,33.12
2019-05-13T12:03:53.207Z,34.11
2019-05-13T12:04:49.562Z,33.72
2019-05-13T12:05:49.414Z,33.12
2019-05-13T12:06:54.277Z,33.31
2019-05-13T12:07:53.502Z,32.20
2019-05-13T12:08:54.034Z,31.51
2019-05-13T12:09:51.797Z,32.42
2019-05-13T12:10:51.907Z,30.91
2019-05-13T12:11:49.357Z,32.52
2019-05-13T12:12:49.358Z,30.41
2019-05-13T12:13:52.521Z,30.81
2019-05-13T12:15:21.101Z,31.62
2019-05-13T12:15:53.988Z,32.82
2019-05-13T12:16:49.289Z,32.32
2019-05-13T12:17:52.333Z,32.32
2019-05-13T12:18:51.217Z,29.72
2019-05-13T12:19:49.279Z,32.05
2019-05-13T12:20:49.271Z,31.04
2019-05-13T12:21:49.295Z,31.04
2019-05-13T12:22:51.489Z,31.65
2019-05-13T12:23:49.252Z,31.65
2019-05-13T12:24:49.684Z,31.14
2019-05-13T12:25:52.556Z,30.14
2019-05-13T12:26:52.826Z,31.24
2019-05-13T12:27:51.376Z,30.44
2019-05-13T12:28:53.194Z,31.14
2019-05-13T12:29:51.916Z,30.24
2019-05-13T12:30:49.163Z,31.04
2019-05-13T12:31:52.396Z,30.34
2019-05-13T12:32:51.353Z,29.82
2019-05-13T12:33:51.988Z,32.33
2019-05-13T12:34:49.115Z,32.03
2019-05-13T12:35:52.564Z,30.73
2019-05-13T12:36:49.106Z,30.52
2019-05-13T12:37:49.116Z,31.54
2019-05-13T12:38:52.912Z,30.94
2019-05-13T12:39:49.637Z,32.55
2019-05-13T12:40:52.478Z,32.64
2019-05-13T12:41:49.037Z,31.53
2019-05-13T12:42:49.120Z,31.43
2019-05-13T12:43:49.040Z,30.41
2019-05-13T12:45:04.610Z,32.12
2019-05-13T12:45:53.033Z,31.23
2019-05-13T12:46:50.433Z,31.63
2019-05-13T12:47:50.295Z,31.71
2019-05-13T12:48:48.970Z,31.51
2019-05-13T12:49:48.970Z,29.62
2019-05-13T12:50:48.972Z,30.83
2019-05-13T12:51:51.110Z,30.52
2019-05-13T12:52:50.931Z,29.44